Time;durP1;ratioP1;P1;durP2;ratioP2;P2;SDS_P1;SDS_P2;PMS_P1;PMS_P2;Temp;Humidity;BMP_temperature;BMP_pressure;BME280_temperature;BME280_humidity;BME280_pressure;Samples;Min_cycle;Max_cycle;Signal;HPM_P1;HPM_P2
2021/06/20 00:00:37;;;;;;;30.53;28.33;;;23.40;1.00;;;;;;4937701;29;20437;-55
2021/06/20 00:03:04;;;;;;;29.13;27.03;;;23.30;1.00;;;;;;4941052;29;20222;-55
2021/06/20 00:05:33;;;;;;;30.40;28.10;;;23.30;1.00;;;;;;4937193;29;20467;-56
2021/06/20 00:08:08;;;;;;;30.97;28.53;;;23.20;1.00;;;;;;4938953;29;20437;-56
2021/06/20 00:10:37;;;;;;;28.77;26.43;;;23.20;1.00;;;;;;4939834;29;20452;-53
2021/06/20 00:13:04;;;;;;;31.00;28.60;;;23.20;1.00;;;;;;4944455;29;20441;-54
2021/06/20 00:15:31;;;;;;;29.57;27.27;;;23.20;1.00;;;;;;4936115;29;20465;-53
2021/06/20 00:17:57;;;;;;;29.40;27.20;;;23.10;1.00;;;;;;4955870;28;20524;-56
2021/06/20 00:20:25;;;;;;;31.60;29.03;;;23.10;1.00;;;;;;4942044;29;20433;-54
2021/06/20 00:22:52;;;;;;;31.60;29.30;;;23.00;1.00;;;;;;4954417;28;20503;-54
2021/06/20 00:25:18;;;;;;;31.63;29.10;;;23.00;1.00;;;;;;4957820;28;21313;-55
2021/06/20 00:27:45;;;;;;;30.47;28.10;;;23.00;1.00;;;;;;4954470;28;20528;-54
2021/06/20 00:30:14;;;;;;;30.87;28.50;;;23.00;1.00;;;;;;4957116;28;20944;-57
2021/06/20 00:32:40;;;;;;;31.47;29.07;;;22.90;1.00;;;;;;4946743;29;20460;-57
2021/06/20 00:35:06;;;;;;;31.10;28.70;;;22.90;1.00;;;;;;4935370;29;20473;-55
2021/06/20 00:37:32;;;;;;;30.87;28.27;;;22.90;1.00;;;;;;4943825;29;20220;-51
2021/06/20 00:39:57;;;;;;;31.13;28.70;;;22.90;1.00;;;;;;4936278;29;20508;-53
2021/06/20 00:42:23;;;;;;;31.20;28.80;;;22.90;1.00;;;;;;4911659;29;20193;-57
2021/06/20 00:44:50;;;;;;;29.80;27.53;;;22.80;1.00;;;;;;4936338;29;20205;-55
2021/06/20 00:47:17;;;;;;;30.50;28.13;;;22.90;1.00;;;;;;4938825;29;20538;-56
2021/06/20 00:49:43;;;;;;;30.77;28.33;;;22.90;1.00;;;;;;4936705;29;20640;-56
2021/06/20 00:52:09;;;;;;;31.37;28.73;;;22.80;1.00;;;;;;4934774;29;20493;-54
2021/06/20 00:54:35;;;;;;;29.53;27.33;;;22.80;1.00;;;;;;4933659;29;20248;-52
2021/06/20 00:57:01;;;;;;;30.50;28.10;;;22.90;1.00;;;;;;4936090;29;20425;-54
2021/06/20 00:59:28;;;;;;;31.20;28.83;;;22.80;1.00;;;;;;4940224;29;20783;-56
2021/06/20 01:01:53;;;;;;;30.43;28.13;;;22.70;1.00;;;;;;4934131;29;20927;-54
2021/06/20 01:04:19;;;;;;;31.37;28.87;;;22.70;3.90;;;;;;4934108;29;20425;-49
2021/06/20 01:06:45;;;;;;;29.77;27.47;;;22.70;1.00;;;;;;4939458;29;20268;-55
2021/06/20 01:09:10;;;;;;;32.67;30.07;;;22.60;4.70;;;;;;4933099;29;20220;-54
2021/06/20 01:11:36;;;;;;;29.80;27.60;;;22.50;9.70;;;;;;4933321;29;20272;-53
2021/06/20 01:14:03;;;;;;;32.10;29.63;;;22.50;9.30;;;;;;4934050;29;20198;-52
2021/06/20 01:16:30;;;;;;;30.27;28.03;;;22.50;11.80;;;;;;4933758;29;20521;-52
2021/06/20 01:18:56;;;;;;;30.70;28.37;;;22.40;15.90;;;;;;4934574;29;20481;-51
2021/06/20 01:21:22;;;;;;;30.37;27.97;;;22.40;18.10;;;;;;4954544;28;20757;-55
2021/06/20 01:23:48;;;;;;;31.77;29.20;;;22.30;18.10;;;;;;4940543;28;20911;-54
2021/06/20 01:26:14;;;;;;;32.20;29.60;;;22.40;16.80;;;;;;4940225;29;20532;-57
2021/06/20 01:28:50;;;;;;;32.70;30.10;;;22.40;14.90;;;;;;4933947;29;20245;-55
2021/06/20 01:31:17;;;;;;;31.50;29.10;;;22.40;12.80;;;;;;4944288;29;20440;-52
2021/06/20 01:33:42;;;;;;;31.20;28.90;;;22.30;16.20;;;;;;4932494;29;20476;-55
2021/06/20 01:36:10;;;;;;;31.40;28.90;;;22.30;16.60;;;;;;4936930;29;20481;-52
2021/06/20 01:38:35;;;;;;;32.67;30.17;;;22.20;19.80;;;;;;4932895;29;20189;-53
2021/06/20 01:41:01;;;;;;;33.23;30.20;;;22.20;19.90;;;;;;4934277;29;21061;-53
2021/06/20 01:43:26;;;;;;;32.90;30.33;;;22.20;17.90;;;;;;4939493;29;20643;-54
2021/06/20 01:45:52;;;;;;;32.70;30.10;;;22.20;19.60;;;;;;4952753;29;20664;-56
2021/06/20 01:48:18;;;;;;;32.40;29.90;;;22.10;23.00;;;;;;4953857;28;20196;-53
2021/06/20 01:50:43;;;;;;;33.60;31.07;;;22.00;27.90;;;;;;4934751;28;20281;-55
2021/06/20 01:53:11;;;;;;;32.00;29.50;;;22.00;30.60;;;;;;4933359;29;20277;-53
2021/06/20 01:55:39;;;;;;;32.70;30.20;;;22.00;28.10;;;;;;4932446;29;20201;-54
2021/06/20 01:58:06;;;;;;;32.73;30.23;;;22.00;27.40;;;;;;4929086;29;20451;-55
2021/06/20 02:00:33;;;;;;;32.87;30.27;;;21.90;31.70;;;;;;4952449;29;20492;-55
2021/06/20 02:03:08;;;;;;;33.03;30.17;;;21.90;35.00;;;;;;4951475;29;20428;-56
2021/06/20 02:05:35;;;;;;;30.97;28.57;;;21.80;38.40;;;;;;4952331;29;20411;-53
2021/06/20 02:08:00;;;;;;;31.77;29.20;;;21.80;38.00;;;;;;4944338;28;20441;-53
2021/06/20 02:10:26;;;;;;;30.53;28.17;;;21.80;34.90;;;;;;4947969;29;20451;-53
2021/06/20 02:12:52;;;;;;;31.27;28.87;;;21.80;29.70;;;;;;4950654;29;20189;-54
2021/06/20 02:15:18;;;;;;;31.93;29.00;;;21.80;28.80;;;;;;4950990;29;21029;-55
2021/06/20 02:17:45;;;;;;;31.00;28.50;;;21.70;29.80;;;;;;4952076;29;20466;-53
2021/06/20 02:20:17;;;;;;;32.90;30.20;;;21.70;29.90;;;;;;4949071;29;20532;-55
2021/06/20 02:22:43;;;;;;;32.03;29.53;;;21.60;34.70;;;;;;4952049;29;20863;-54
2021/06/20 02:25:11;;;;;;;30.77;28.37;;;21.60;39.60;;;;;;4952025;29;20556;-54
2021/06/20 02:27:38;;;;;;;31.47;29.00;;;21.50;44.30;;;;;;4954198;28;20756;-53
2021/06/20 02:30:05;;;;;;;31.83;29.23;;;21.50;45.90;;;;;;4949008;28;20918;-52
2021/06/20 02:32:31;;;;;;;31.27;28.73;;;21.50;44.20;;;;;;4934665;29;20524;-54
2021/06/20 02:34:56;;;;;;;30.70;28.27;;;21.50;44.30;;;;;;4952409;29;20625;-54
2021/06/20 02:37:23;;;;;;;32.17;29.60;;;21.50;43.70;;;;;;4953424;29;20530;-52
2021/06/20 02:39:49;;;;;;;32.53;29.83;;;21.40;48.00;;;;;;4952468;29;20560;-54
2021/06/20 02:42:16;;;;;;;30.97;28.20;;;21.30;50.30;;;;;;4953356;29;20440;-55
2021/06/20 02:44:41;;;;;;;31.67;29.27;;;21.30;50.40;;;;;;4952663;29;20420;-55
2021/06/20 02:47:07;;;;;;;30.13;27.77;;;21.30;50.80;;;;;;4942041;29;20475;-54
2021/06/20 02:49:35;;;;;;;31.80;29.20;;;21.30;50.90;;;;;;4933935;29;20197;-53
2021/06/20 02:52:02;;;;;;;32.27;29.70;;;21.30;50.00;;;;;;4940841;29;20515;-54
2021/06/20 02:54:29;;;;;;;30.90;28.30;;;21.20;52.10;;;;;;4953196;29;20430;-53
2021/06/20 02:56:55;;;;;;;31.50;28.90;;;21.20;55.60;;;;;;4951956;29;20472;-50
2021/06/20 02:59:20;;;;;;;31.17;28.77;;;21.20;55.60;;;;;;4953193;29;20416;-56
2021/06/20 03:01:46;;;;;;;31.70;29.10;;;21.10;58.80;;;;;;4948244;29;20189;-55
2021/06/20 03:04:11;;;;;;;32.60;30.07;;;21.10;65.20;;;;;;4933994;29;20537;-58
2021/06/20 03:06:38;;;;;;;30.77;28.37;;;21.10;63.10;;;;;;4934164;29;20169;-56
2021/06/20 03:09:04;;;;;;;31.97;29.47;;;21.00;66.50;;;;;;4952975;29;20176;-52
2021/06/20 03:11:30;;;;;;;31.60;29.10;;;21.00;64.70;;;;;;4935576;29;20429;-55
2021/06/20 03:13:56;;;;;;;30.97;28.43;;;21.00;66.00;;;;;;4952128;29;20755;-56
2021/06/20 03:16:21;;;;;;;32.00;29.40;;;21.00;66.00;;;;;;4952889;29;20200;-55
2021/06/20 03:18:48;;;;;;;30.93;28.43;;;21.00;67.30;;;;;;4952595;29;20225;-55
2021/06/20 03:21:15;;;;;;;31.77;29.27;;;21.00;69.60;;;;;;4922554;29;20253;-57
2021/06/20 03:23:42;;;;;;;30.90;28.50;;;21.00;72.60;;;;;;4951815;29;20437;-54
2021/06/20 03:26:07;;;;;;;32.33;29.53;;;21.00;70.00;;;;;;4952981;28;20780;-54
2021/06/20 03:28:33;;;;;;;31.07;28.63;;;21.00;66.50;;;;;;4937712;29;20446;-55
2021/06/20 03:30:58;;;;;;;30.23;27.73;;;21.00;60.70;;;;;;4949310;28;20197;-52
2021/06/20 03:33:24;;;;;;;31.30;28.90;;;21.10;56.10;;;;;;4932401;29;20233;-53
2021/06/20 03:35:49;;;;;;;31.23;28.63;;;21.10;52.70;;;;;;4932116;29;20209;-54
2021/06/20 03:38:15;;;;;;;28.63;26.20;;;21.10;44.30;;;;;;4933388;29;20181;-55
2021/06/20 03:40:40;;;;;;;28.63;26.40;;;21.00;44.90;;;;;;4950386;29;20257;-52
2021/06/20 03:43:06;;;;;;;28.97;26.67;;;21.00;48.80;;;;;;4951188;29;20578;-52
2021/06/20 03:45:32;;;;;;;29.43;27.20;;;21.00;52.10;;;;;;4950396;29;20193;-48
2021/06/20 03:47:57;;;;;;;30.50;28.07;;;21.00;50.30;;;;;;4951016;29;20181;-55
2021/06/20 03:50:25;;;;;;;30.20;27.67;;;21.00;49.60;;;;;;4950973;29;20189;-53
2021/06/20 03:52:50;;;;;;;29.30;26.90;;;21.00;48.90;;;;;;4950398;29;20640;-52
2021/06/20 03:55:17;;;;;;;29.90;27.50;;;21.10;46.20;;;;;;4950920;29;20453;-51
2021/06/20 03:57:42;;;;;;;29.50;27.30;;;21.10;47.70;;;;;;4949301;29;20190;-51
2021/06/20 04:00:10;;;;;;;28.77;26.47;;;21.10;49.50;;;;;;4951547;28;20436;-55
2021/06/20 04:02:36;;;;;;;28.87;26.53;;;21.10;49.70;;;;;;4948482;29;20182;-51
2021/06/20 04:05:02;;;;;;;28.40;26.27;;;21.10;36.70;;;;;;4935546;29;20485;-57
2021/06/20 04:07:27;;;;;;;26.93;24.83;;;21.10;27.10;;;;;;4934886;29;20209;-55
2021/06/20 04:09:53;;;;;;;25.30;23.33;;;21.20;14.00;;;;;;4935306;29;20569;-54
2021/06/20 04:12:18;;;;;;;25.83;23.83;;;21.30;1.00;;;;;;4935263;29;20186;-56
2021/06/20 04:14:44;;;;;;;26.57;24.40;;;21.40;1.00;;;;;;4935273;29;20173;-53
2021/06/20 04:17:10;;;;;;;24.37;22.50;;;21.70;1.00;;;;;;4934231;29;20201;-56
2021/06/20 04:19:36;;;;;;;24.23;22.33;;;21.70;1.00;;;;;;4934885;29;20774;-53
2021/06/20 04:22:03;;;;;;;23.13;21.43;;;21.80;1.00;;;;;;4935168;29;20410;-52
2021/06/20 04:24:28;;;;;;;22.77;20.97;;;21.80;1.00;;;;;;4934379;29;20805;-54
2021/06/20 04:26:54;;;;;;;22.97;21.23;;;21.80;1.00;;;;;;4944884;28;20455;-55
2021/06/20 04:29:20;;;;;;;23.70;21.80;;;22.00;1.00;;;;;;4964932;28;20196;-53
2021/06/20 04:31:46;;;;;;;24.10;22.20;;;22.10;1.00;;;;;;4953358;28;20715;-51
2021/06/20 04:34:12;;;;;;;23.47;21.50;;;22.10;1.00;;;;;;4941485;29;20437;-55
2021/06/20 04:36:38;;;;;;;24.83;22.93;;;22.20;1.00;;;;;;4935393;29;20932;-53
2021/06/20 04:39:08;;;;;;;24.00;22.00;;;22.20;1.00;;;;;;4934732;29;20206;-56
2021/06/20 04:41:39;;;;;;;23.17;21.27;;;22.10;1.00;;;;;;4935247;29;20182;-53
2021/06/20 04:44:42;;;;;;;24.40;22.40;;;22.10;1.00;;;;;;4942415;29;20433;-53
2021/06/20 04:46:51;;;;;;;23.37;21.57;;;22.20;1.00;;;;;;4934461;29;20426;-56
2021/06/20 04:49:19;;;;;;;23.37;21.57;;;22.30;1.00;;;;;;4934387;29;20425;-54
2021/06/20 04:51:44;;;;;;;23.90;22.10;;;22.40;1.00;;;;;;4937625;29;20181;-53
2021/06/20 04:54:11;;;;;;;23.17;21.37;;;22.40;1.00;;;;;;4943168;29;20441;-56
2021/06/20 04:56:37;;;;;;;23.33;21.57;;;22.50;1.00;;;;;;4934682;29;20255;-55
2021/06/20 04:59:03;;;;;;;22.40;20.73;;;22.60;1.00;;;;;;4926732;29;20634;-54
2021/06/20 05:01:29;;;;;;;23.17;21.30;;;22.60;1.00;;;;;;4944528;28;20425;-54
2021/06/20 05:03:56;;;;;;;22.67;20.97;;;22.70;1.00;;;;;;4953422;29;20416;-56
2021/06/20 05:06:21;;;;;;;22.50;20.80;;;22.90;1.00;;;;;;4953474;29;20181;-56
2021/06/20 05:08:47;;;;;;;21.33;19.73;;;23.00;1.00;;;;;;4948070;29;20439;-54
2021/06/20 05:11:13;;;;;;;21.93;20.33;;;23.20;99.90;;;;;;4952397;28;20563;-55
2021/06/20 05:13:40;;;;;;;20.60;19.00;;;23.40;99.90;;;;;;4953269;29;20193;-51
2021/06/20 05:16:06;;;;;;;22.10;20.50;;;23.60;99.90;;;;;;4964460;28;20200;-55
2021/06/20 05:18:32;;;;;;;20.43;19.03;;;23.60;99.90;;;;;;4972431;28;20467;-56
2021/06/20 05:20:58;;;;;;;18.90;17.60;;;23.70;99.90;;;;;;4949771;28;20540;-53
2021/06/20 05:23:24;;;;;;;19.80;18.40;;;23.80;1.00;;;;;;4933272;29;20472;-55
2021/06/20 05:25:49;;;;;;;20.70;19.30;;;23.90;1.00;;;;;;4934068;29;20193;-51
2021/06/20 05:28:15;;;;;;;19.57;18.10;;;24.00;99.90;;;;;;4941637;29;20652;-53
2021/06/20 05:30:45;;;;;;;18.63;17.43;;;24.10;99.90;;;;;;4947174;29;20212;-56
2021/06/20 05:33:11;;;;;;;18.07;16.43;;;24.20;23.70;;;;;;4955097;28;20753;-57
2021/06/20 05:35:36;;;;;;;17.97;16.50;;;24.40;1.00;;;;;;4956937;28;20517;-55
2021/06/20 05:38:02;;;;;;;17.60;16.30;;;24.50;1.00;;;;;;4933095;28;20457;-52
2021/06/20 05:40:27;;;;;;;16.80;15.70;;;24.50;99.90;;;;;;4945345;29;20233;-50
2021/06/20 05:42:53;;;;;;;17.40;16.10;;;24.70;99.90;;;;;;4933315;29;20220;-51
2021/06/20 05:45:19;;;;;;;17.57;16.33;;;24.70;2.10;;;;;;4943198;29;20185;-53
2021/06/20 05:47:44;;;;;;;17.37;16.07;;;24.90;1.00;;;;;;4934107;29;20744;-53
2021/06/20 05:50:10;;;;;;;17.00;15.90;;;25.00;99.90;;;;;;4934084;29;20629;-53
2021/06/20 05:52:36;;;;;;;16.53;15.43;;;25.00;99.90;;;;;;4940876;29;20193;-49
2021/06/20 05:55:02;;;;;;;17.60;16.40;;;25.10;69.20;;;;;;4937835;29;20429;-55
2021/06/20 05:57:28;;;;;;;18.27;16.90;;;25.10;1.00;;;;;;4938375;29;20196;-55
2021/06/20 05:59:53;;;;;;;17.13;15.93;;;25.10;1.00;;;;;;4939473;29;20426;-52
2021/06/20 06:02:19;;;;;;;16.00;14.93;;;25.20;1.00;;;;;;4932522;29;20197;-50
2021/06/20 06:04:44;;;;;;;17.00;15.80;;;25.20;1.00;;;;;;4933888;29;20309;-52
2021/06/20 06:07:10;;;;;;;17.80;16.60;;;25.20;99.90;;;;;;4935078;29;20197;-54
2021/06/20 06:09:36;;;;;;;15.67;14.63;;;25.30;1.00;;;;;;4941878;29;20197;-53
2021/06/20 06:12:03;;;;;;;16.77;15.47;;;25.40;1.00;;;;;;4933766;29;20196;-50
2021/06/20 06:14:28;;;;;;;17.80;16.50;;;25.40;1.00;;;;;;4933538;29;20429;-53
2021/06/20 06:16:54;;;;;;;17.83;16.57;;;25.50;99.90;;;;;;4919130;29;20513;-53
2021/06/20 06:19:19;;;;;;;17.60;16.40;;;25.60;99.90;;;;;;4933237;29;20233;-52
2021/06/20 06:21:45;;;;;;;16.57;15.33;;;25.70;99.90;;;;;;4952891;28;20186;-55
2021/06/20 06:24:11;;;;;;;16.10;14.90;;;25.80;99.90;;;;;;4950196;28;20275;-56
2021/06/20 06:26:37;;;;;;;16.67;15.57;;;25.90;99.90;;;;;;4939789;29;20516;-56
2021/06/20 06:29:03;;;;;;;17.47;16.27;;;26.00;91.90;;;;;;4933512;29;20197;-51
2021/06/20 06:31:30;;;;;;;16.33;15.13;;;26.10;1.00;;;;;;4942563;28;20441;-54
2021/06/20 06:33:55;;;;;;;17.60;16.40;;;26.40;1.00;;;;;;4934075;29;20420;-55
2021/06/20 06:36:21;;;;;;;16.33;15.23;;;26.40;1.00;;;;;;4941951;29;20468;-57
2021/06/20 06:38:46;;;;;;;16.27;14.83;;;26.50;1.00;;;;;;4951887;29;20248;-53
2021/06/20 06:41:12;;;;;;;16.77;15.67;;;26.60;99.90;;;;;;4952006;29;20181;-54
2021/06/20 06:43:38;;;;;;;17.40;16.17;;;26.70;99.90;;;;;;4951780;29;20178;-58
2021/06/20 06:46:04;;;;;;;17.03;15.93;;;26.90;99.90;;;;;;4950199;29;20804;-56
2021/06/20 06:48:29;;;;;;;16.47;15.33;;;27.10;99.90;;;;;;4952011;29;20273;-53
2021/06/20 06:50:55;;;;;;;16.80;15.70;;;27.20;99.90;;;;;;4945895;29;20189;-51
2021/06/20 06:53:20;;;;;;;16.27;15.27;;;27.30;99.90;;;;;;4932674;29;20185;-55
2021/06/20 06:55:46;;;;;;;17.13;16.07;;;27.40;99.90;;;;;;4935132;29;20248;-55
2021/06/20 06:58:12;;;;;;;17.33;16.13;;;27.60;99.90;;;;;;4950080;29;20189;-53
2021/06/20 07:00:38;;;;;;;16.63;15.53;;;27.90;99.90;;;;;;4937685;29;20259;-54
2021/06/20 07:03:03;;;;;;;16.90;15.80;;;28.10;5.40;;;;;;4932353;29;21015;-55
2021/06/20 07:05:30;;;;;;;17.43;16.23;;;28.20;1.00;;;;;;4933214;29;20197;-53
2021/06/20 07:07:56;;;;;;;16.70;15.60;;;28.40;1.00;;;;;;4932432;29;20657;-55
2021/06/20 07:10:22;;;;;;;17.17;16.10;;;28.40;1.00;;;;;;4938844;29;20523;-53
2021/06/20 07:12:48;;;;;;;16.87;15.70;;;28.60;1.00;;;;;;4950859;29;20211;-56
2021/06/20 07:15:14;;;;;;;17.70;16.60;;;28.90;1.00;;;;;;4951362;29;20489;-52
2021/06/20 07:17:39;;;;;;;17.23;16.23;;;29.00;1.00;;;;;;4950784;29;20224;-52
2021/06/20 07:20:12;;;;;;;17.30;16.20;;;29.10;1.00;;;;;;4946773;29;20425;-53
2021/06/20 07:22:37;;;;;;;18.03;16.93;;;29.30;1.00;;;;;;4951448;29;20162;-53
2021/06/20 07:25:04;;;;;;;17.07;15.97;;;29.30;1.00;;;;;;4951296;29;20436;-54
2021/06/20 07:27:30;;;;;;;17.20;16.10;;;29.30;1.00;;;;;;4932471;29;20784;-56
2021/06/20 07:29:55;;;;;;;17.77;16.67;;;29.30;1.00;;;;;;4949563;29;20523;-56
2021/06/20 07:32:21;;;;;;;17.37;16.17;;;29.30;1.00;;;;;;4955236;28;20182;-57
2021/06/20 07:34:46;;;;;;;17.13;15.93;;;29.40;1.00;;;;;;4959188;28;20184;-51
2021/06/20 07:37:12;;;;;;;17.17;15.97;;;29.60;1.00;;;;;;4937493;29;20599;-52
2021/06/20 07:39:37;;;;;;;17.90;16.70;;;29.70;1.00;;;;;;4952837;29;20178;-56
2021/06/20 07:42:03;;;;;;;16.57;15.57;;;29.70;1.00;;;;;;4935747;29;20369;-53
2021/06/20 07:44:30;;;;;;;16.90;15.90;;;29.90;1.00;;;;;;4937866;29;20190;-55
2021/06/20 07:46:55;;;;;;;17.47;16.27;;;30.00;1.00;;;;;;4935971;29;20688;-52
2021/06/20 07:49:21;;;;;;;17.63;16.47;;;30.30;1.00;;;;;;4936459;28;20522;-56
2021/06/20 07:51:46;;;;;;;17.43;16.27;;;30.50;1.00;;;;;;4935491;29;20185;-53
2021/06/20 07:54:12;;;;;;;17.47;16.33;;;30.80;1.00;;;;;;4936323;29;20701;-52
2021/06/20 07:56:38;;;;;;;17.50;16.40;;;31.10;1.00;;;;;;4939808;28;20353;-53
2021/06/20 07:59:04;;;;;;;17.83;16.63;;;31.10;99.90;;;;;;4954485;29;20409;-54
2021/06/20 08:01:30;;;;;;;17.13;16.07;;;31.30;99.90;;;;;;4943007;29;20539;-54
2021/06/20 08:03:56;;;;;;;17.90;16.70;;;31.40;99.90;;;;;;4935488;29;20158;-56
2021/06/20 08:06:23;;;;;;;17.93;16.83;;;31.60;99.90;;;;;;4942232;29;20911;-52
2021/06/20 08:08:54;;;;;;;17.00;15.90;;;31.80;99.90;;;;;;4953187;29;20471;-54
2021/06/20 08:11:20;;;;;;;17.33;16.30;;;32.10;99.90;;;;;;4952961;29;20440;-55
2021/06/20 08:13:46;;;;;;;17.87;16.77;;;32.10;99.90;;;;;;4934212;29;20440;-55
2021/06/20 08:16:11;;;;;;;17.47;16.37;;;32.10;99.90;;;;;;4954200;29;20678;-54
2021/06/20 08:18:37;;;;;;;16.87;15.80;;;32.30;99.90;;;;;;4954112;29;20223;-55
2021/06/20 08:21:02;;;;;;;16.83;15.83;;;32.40;99.90;;;;;;4941607;29;20220;-59
2021/06/20 08:23:28;;;;;;;17.73;16.63;;;32.50;99.90;;;;;;4934590;29;20182;-55
2021/06/20 08:25:53;;;;;;;17.23;16.23;;;32.60;99.90;;;;;;4934751;29;20181;-53
2021/06/20 08:28:19;;;;;;;17.90;16.80;;;32.70;99.90;;;;;;4938165;29;20197;-54
2021/06/20 08:30:45;;;;;;;17.50;16.50;;;32.70;99.90;;;;;;4954060;28;20264;-56
2021/06/20 08:33:10;;;;;;;17.90;16.70;;;32.70;99.90;;;;;;4960429;28;20893;-55
2021/06/20 08:35:36;;;;;;;17.50;16.40;;;32.80;99.90;;;;;;4954509;28;20212;-56
2021/06/20 08:38:01;;;;;;;17.70;16.60;;;32.60;99.90;;;;;;4938359;28;20186;-52
2021/06/20 08:40:27;;;;;;;17.57;16.50;;;32.90;99.90;;;;;;4934640;29;20260;-53
2021/06/20 08:42:53;;;;;;;18.20;17.10;;;33.10;99.90;;;;;;4934430;29;20608;-56
2021/06/20 08:45:18;;;;;;;17.20;16.10;;;33.30;99.90;;;;;;4934645;29;20194;-54
2021/06/20 08:47:44;;;;;;;17.03;16.03;;;33.70;99.90;;;;;;4933290;29;20189;-55
2021/06/20 08:50:11;;;;;;;16.87;15.90;;;33.90;99.90;;;;;;4943293;28;20604;-53
2021/06/20 08:52:37;;;;;;;17.53;16.50;;;34.00;99.90;;;;;;4946754;28;20456;-56
2021/06/20 08:55:05;;;;;;;17.80;16.70;;;34.40;99.90;;;;;;4944843;29;20792;-57
2021/06/20 08:57:41;;;;;;;17.43;16.43;;;34.40;99.90;;;;;;4946278;28;20473;-55
2021/06/20 09:00:10;;;;;;;16.87;15.80;;;34.70;99.90;;;;;;4943570;28;20425;-55
2021/06/20 09:02:36;;;;;;;15.97;14.97;;;34.90;99.90;;;;;;4946598;29;20428;-57
2021/06/20 09:05:04;;;;;;;17.77;16.67;;;35.20;99.90;;;;;;4940441;28;20547;-57
2021/06/20 09:07:38;;;;;;;17.10;16.00;;;35.60;99.90;;;;;;4946048;29;20704;-56
2021/06/20 09:10:19;;;;;;;14.93;14.13;;;35.90;99.90;;;;;;4940112;28;20606;-55
2021/06/20 09:12:58;;;;;;;17.00;16.00;;;35.80;99.90;;;;;;4928294;28;20563;-56
2021/06/20 09:15:27;;;;;;;15.93;15.10;;;35.70;99.90;;;;;;4937170;28;20834;-55
2021/06/20 09:17:58;;;;;;;15.27;14.37;;;35.70;99.90;;;;;;4919296;29;21043;-56
2021/06/20 09:20:41;;;;;;;16.73;15.83;;;35.70;99.90;;;;;;4942354;28;20791;-57
2021/06/20 09:23:15;;;;;;;17.17;16.13;;;35.80;99.90;;;;;;4941726;28;20441;-56
2021/06/20 09:25:44;;;;;;;16.57;15.53;;;35.80;99.90;;;;;;4942100;29;20445;-55
2021/06/20 09:28:11;;;;;;;16.30;15.30;;;35.70;99.90;;;;;;4933940;28;20456;-52
2021/06/20 09:30:49;;;;;;;14.93;14.13;;;35.70;99.90;;;;;;4933098;29;20517;-53
2021/06/20 09:33:15;;;;;;;14.23;13.23;;;35.90;99.90;;;;;;4935018;28;20520;-51
2021/06/20 09:35:46;;;;;;;14.77;13.97;;;35.90;99.90;;;;;;4926974;29;20222;-58
2021/06/20 09:38:21;;;;;;;15.07;14.03;;;36.20;99.90;;;;;;4940892;29;20459;-55
2021/06/20 09:40:51;;;;;;;14.83;14.03;;;36.30;99.90;;;;;;4945992;28;21411;-55
2021/06/20 09:43:19;;;;;;;14.50;13.70;;;35.90;99.90;;;;;;4939109;29;20778;-56
2021/06/20 09:45:47;;;;;;;13.47;12.67;;;35.80;99.90;;;;;;4938203;29;20798;-56
2021/06/20 09:48:31;;;;;;;14.10;13.20;;;35.90;99.90;;;;;;4937969;29;20488;-55
2021/06/20 09:50:59;;;;;;;14.67;13.77;;;36.10;99.90;;;;;;4939154;29;20443;-56
2021/06/20 09:53:38;;;;;;;14.67;13.70;;;36.30;99.90;;;;;;4943373;29;21026;-56
2021/06/20 09:56:24;;;;;;;15.07;14.17;;;36.10;99.90;;;;;;4941290;29;20555;-52
2021/06/20 09:58:57;;;;;;;15.10;14.10;;;35.90;99.90;;;;;;4938891;28;20512;-53
2021/06/20 10:01:24;;;;;;;14.43;13.53;;;35.70;99.90;;;;;;4936399;29;20470;-57
2021/06/20 10:03:50;;;;;;;14.07;13.03;;;35.60;99.90;;;;;;4935321;28;20440;-57
2021/06/20 10:06:17;;;;;;;14.13;13.03;;;35.40;99.90;;;;;;4937888;29;20449;-56
2021/06/20 10:08:43;;;;;;;12.93;11.80;;;35.30;99.90;;;;;;4936947;28;20185;-55
2021/06/20 10:11:09;;;;;;;14.00;13.00;;;35.40;99.90;;;;;;4936996;29;20451;-54
2021/06/20 10:13:35;;;;;;;12.87;11.20;;;35.40;99.90;;;;;;4938085;29;20445;-57
2021/06/20 10:16:16;;;;;;;14.90;11.40;;;35.50;99.90;;;;;;4934607;28;20830;-56
2021/06/20 10:18:55;;;;;;;12.40;11.10;;;35.40;99.90;;;;;;4934371;28;20279;-53
2021/06/20 10:21:30;;;;;;;13.00;11.83;;;35.30;99.90;;;;;;4941529;28;20503;-53
2021/06/20 10:24:11;;;;;;;12.90;11.80;;;35.30;99.90;;;;;;4951588;28;20416;-57
2021/06/20 10:26:40;;;;;;;15.13;12.07;;;35.60;99.90;;;;;;4934259;29;20785;-55
2021/06/20 10:29:20;;;;;;;12.17;11.10;;;35.60;99.90;;;;;;4932444;28;20440;-55
2021/06/20 10:31:47;;;;;;;12.40;11.47;;;35.80;99.90;;;;;;4942312;29;20440;-53
2021/06/20 10:34:17;;;;;;;13.60;12.30;;;35.90;99.90;;;;;;4949463;29;20448;-56
2021/06/20 10:36:49;;;;;;;13.40;12.00;;;35.80;99.90;;;;;;4939987;29;20485;-55
2021/06/20 10:39:15;;;;;;;12.23;11.03;;;35.70;99.90;;;;;;4942539;29;20987;-55
2021/06/20 10:41:41;;;;;;;13.87;11.90;;;34.90;99.90;;;;;;4945730;28;20436;-54
2021/06/20 10:44:07;;;;;;;16.30;12.70;;;34.70;99.90;;;;;;4935781;28;20190;-57
2021/06/20 10:46:33;;;;;;;12.90;11.60;;;34.60;99.90;;;;;;4919130;29;20229;-52
2021/06/20 10:49:00;;;;;;;15.70;12.80;;;34.80;99.90;;;;;;4939437;29;20648;-57
2021/06/20 10:51:26;;;;;;;12.13;10.83;;;34.80;99.90;;;;;;4938851;29;20193;-55
2021/06/20 10:53:52;;;;;;;15.67;11.30;;;34.80;99.90;;;;;;4938257;29;20441;-58
2021/06/20 10:56:26;;;;;;;18.60;11.90;;;34.80;99.90;;;;;;4937653;28;20218;-52
2021/06/20 10:58:53;;;;;;;19.73;12.70;;;35.00;99.90;;;;;;4940104;29;20494;-56
2021/06/20 11:01:21;;;;;;;16.40;12.03;;;35.10;99.90;;;;;;4936554;29;20440;-54
2021/06/20 11:03:58;;;;;;;15.57;11.67;;;35.20;99.90;;;;;;4935959;29;20556;-54
2021/06/20 11:06:25;;;;;;;13.93;12.47;;;35.40;99.90;;;;;;4932844;29;20432;-58
2021/06/20 11:09:07;;;;;;;16.27;12.10;;;35.60;99.90;;;;;;4931095;28;20449;-55
2021/06/20 11:11:36;;;;;;;16.90;11.40;;;35.70;99.90;;;;;;4935051;29;20449;-57
2021/06/20 11:14:09;;;;;;;17.23;11.53;;;36.00;99.90;;;;;;4938877;29;20487;-53
2021/06/20 11:16:35;;;;;;;14.97;11.10;;;36.00;99.90;;;;;;4957274;28;20477;-54
2021/06/20 11:19:05;;;;;;;20.03;12.40;;;35.90;99.90;;;;;;4943282;29;21061;-55
2021/06/20 11:21:31;;;;;;;17.67;11.83;;;35.70;99.90;;;;;;4939162;29;20446;-55
2021/06/20 11:23:56;;;;;;;21.10;11.93;;;35.80;99.90;;;;;;4951083;29;20453;-53
2021/06/20 11:26:22;;;;;;;17.07;12.13;;;35.80;99.90;;;;;;4941140;28;20408;-55
2021/06/20 11:28:58;;;;;;;22.00;12.87;;;35.60;99.90;;;;;;4938268;29;20194;-55
2021/06/20 11:31:24;;;;;;;13.60;11.90;;;35.50;99.90;;;;;;4937534;29;20619;-56
2021/06/20 11:33:54;;;;;;;15.93;12.33;;;35.40;99.90;;;;;;4936946;29;20465;-55
2021/06/20 11:36:20;;;;;;;19.23;12.30;;;35.60;99.90;;;;;;4935850;29;20261;-54
2021/06/20 11:38:46;;;;;;;22.13;12.50;;;35.80;99.90;;;;;;4936272;29;20441;-54
2021/06/20 11:41:14;;;;;;;16.77;12.50;;;35.90;99.90;;;;;;4942757;29;20480;-56
2021/06/20 11:43:54;;;;;;;19.57;12.90;;;35.80;99.90;;;;;;4946266;29;20273;-55
2021/06/20 11:46:21;;;;;;;18.10;11.87;;;36.00;99.90;;;;;;4941704;28;20970;-56
2021/06/20 11:49:08;;;;;;;17.10;11.67;;;36.30;99.90;;;;;;4931753;28;20452;-54
2021/06/20 11:51:37;;;;;;;15.10;13.60;;;36.40;99.90;;;;;;4940227;28;20437;-55
2021/06/20 11:54:15;;;;;;;16.23;14.63;;;36.40;99.90;;;;;;4944355;29;20451;-56
2021/06/20 11:56:44;;;;;;;18.73;16.47;;;36.50;99.90;;;;;;4949840;28;20471;-58
2021/06/20 11:59:10;;;;;;;18.83;15.60;;;36.70;99.90;;;;;;4935277;28;20461;-54
2021/06/20 12:01:44;;;;;;;15.90;14.50;;;37.10;99.90;;;;;;4951092;28;20489;-54
2021/06/20 12:04:11;;;;;;;15.95;14.52;;;37.40;99.90;;;;;;4940651;28;20441;-58
2021/06/20 12:06:38;;;;;;;16.17;14.57;;;37.60;99.90;;;;;;4938439;29;20233;-53
2021/06/20 12:09:07;;;;;;;15.00;13.60;;;37.80;99.90;;;;;;4945976;28;20444;-57
2021/06/20 12:11:34;;;;;;;16.80;13.73;;;37.90;99.90;;;;;;4941859;28;20477;-55
2021/06/20 12:13:59;;;;;;;15.10;13.20;;;38.20;99.90;;;;;;4944051;28;20869;-57
2021/06/20 12:16:25;;;;;;;16.50;12.83;;;38.40;99.90;;;;;;4942571;28;20465;-55
2021/06/20 12:18:52;;;;;;;15.17;13.37;;;38.40;99.90;;;;;;4934235;29;20264;-54
2021/06/20 12:21:26;;;;;;;13.93;12.57;;;38.30;99.90;;;;;;4935404;29;20451;-54
2021/06/20 12:23:59;;;;;;;14.70;13.27;;;38.20;99.90;;;;;;4935119;29;20480;-53
2021/06/20 12:26:30;;;;;;;18.47;13.20;;;38.20;99.90;;;;;;4934232;29;20472;-56
2021/06/20 12:28:57;;;;;;;22.93;13.33;;;38.00;99.90;;;;;;4939315;28;20447;-54
2021/06/20 12:31:23;;;;;;;16.27;13.10;;;37.80;99.90;;;;;;4940435;29;20500;-54